Time;durP1;ratioP1;P1;durP2;ratioP2;P2;SDS_P1;SDS_P2;PMS_P1;PMS_P2;Temp;Humidity;BMP_temperature;BMP_pressure;BME280_temperature;BME280_humidity;BME280_pressure;Samples;Min_cycle;Max_cycle;Signal;HPM_P1;HPM_P2
2024/01/15 00:01:05;;;;;;;3.13;2.75;;;21.20;66.90;;;;;;6122694;23;20477;-81
2024/01/15 00:03:32;;;;;;;3.20;2.88;;;21.20;66.80;;;;;;6120797;23;20173;-82
2024/01/15 00:05:59;;;;;;;4.47;2.50;;;21.10;66.70;;;;;;6121846;23;20272;-81
2024/01/15 00:08:25;;;;;;;4.82;2.55;;;21.10;66.70;;;;;;6121217;23;20187;-82
2024/01/15 00:10:52;;;;;;;2.65;2.45;;;21.10;66.50;;;;;;6125704;23;20203;-81
2024/01/15 00:13:19;;;;;;;3.33;3.05;;;21.10;66.50;;;;;;6125079;23;20180;-82
2024/01/15 00:15:45;;;;;;;3.40;2.40;;;21.10;66.50;;;;;;6124892;23;20183;-82
2024/01/15 00:18:13;;;;;;;5.10;3.00;;;21.10;66.50;;;;;;6125907;23;20176;-81
2024/01/15 00:20:40;;;;;;;2.53;2.25;;;21.10;66.60;;;;;;6125339;23;21000;-82
2024/01/15 00:23:07;;;;;;;3.38;3.00;;;21.10;66.50;;;;;;6127689;23;20195;-81
2024/01/15 00:25:34;;;;;;;3.10;2.30;;;21.10;66.50;;;;;;6127768;23;20180;-81
2024/01/15 00:28:01;;;;;;;3.67;3.30;;;21.10;66.50;;;;;;6129184;23;20180;-81
2024/01/15 00:30:27;;;;;;;2.92;2.70;;;21.10;66.50;;;;;;6122962;23;20177;-81
2024/01/15 00:32:54;;;;;;;2.47;2.28;;;21.10;66.50;;;;;;6124668;23;20512;-81
2024/01/15 00:35:22;;;;;;;2.70;2.50;;;21.10;66.50;;;;;;6129156;23;20183;-81
2024/01/15 00:37:49;;;;;;;2.47;2.28;;;21.10;66.50;;;;;;6125706;23;20176;-82
2024/01/15 00:40:16;;;;;;;7.00;2.90;;;21.10;66.50;;;;;;6125993;23;20247;-81
2024/01/15 00:42:42;;;;;;;2.95;2.67;;;21.10;66.40;;;;;;6123994;23;20855;-81
2024/01/15 00:45:10;;;;;;;4.25;2.97;;;21.10;66.50;;;;;;6124589;23;20173;-81
2024/01/15 00:47:37;;;;;;;2.30;2.10;;;21.10;66.50;;;;;;6123800;23;20872;-81
2024/01/15 00:50:04;;;;;;;2.50;2.30;;;21.10;66.40;;;;;;6122927;23;20950;-81
2024/01/15 00:52:32;;;;;;;2.58;2.38;;;21.10;66.50;;;;;;6125045;23;20216;-80
2024/01/15 00:54:59;;;;;;;2.35;2.13;;;21.10;66.50;;;;;;6124268;23;20188;-81
2024/01/15 00:57:25;;;;;;;2.42;2.22;;;21.10;66.50;;;;;;6129565;23;20178;-81
2024/01/15 00:59:52;;;;;;;2.70;2.25;;;21.10;66.50;;;;;;6127053;23;20592;-80
2024/01/15 01:02:19;;;;;;;2.50;2.28;;;21.10;66.50;;;;;;6129348;23;20220;-81
2024/01/15 01:04:46;;;;;;;2.67;2.47;;;21.10;66.50;;;;;;6126549;23;20238;-81
2024/01/15 01:07:12;;;;;;;2.88;2.30;;;21.10;66.50;;;;;;6125573;23;20181;-82
2024/01/15 01:09:40;;;;;;;2.42;2.22;;;21.10;66.40;;;;;;6128668;23;20179;-82
2024/01/15 01:12:07;;;;;;;2.60;2.40;;;21.10;66.40;;;;;;6128285;23;20196;-82
2024/01/15 01:14:34;;;;;;;2.15;2.05;;;21.10;66.50;;;;;;6127756;23;20185;-82
2024/01/15 01:17:01;;;;;;;2.42;2.22;;;21.10;66.40;;;;;;6128562;23;20601;-82
2024/01/15 01:19:27;;;;;;;2.53;2.00;;;21.10;66.50;;;;;;6131199;23;20180;-81
2024/01/15 01:21:54;;;;;;;1.98;1.88;;;21.10;66.50;;;;;;6129048;23;20180;-82
2024/01/15 01:24:21;;;;;;;2.35;2.15;;;21.10;66.40;;;;;;6129530;23;20169;-82
2024/01/15 01:26:49;;;;;;;2.28;2.08;;;21.10;66.50;;;;;;6130714;23;20184;-81
2024/01/15 01:29:16;;;;;;;1.90;1.80;;;21.10;66.40;;;;;;6128245;23;20179;-81
2024/01/15 01:31:46;;;;;;;2.05;1.85;;;21.10;66.50;;;;;;6130778;23;20188;-82
2024/01/15 01:34:15;;;;;;;2.40;2.20;;;21.00;66.50;;;;;;6129116;23;20240;-81
2024/01/15 01:36:42;;;;;;;2.60;2.40;;;21.00;66.40;;;;;;6127188;23;20180;-82
2024/01/15 01:39:09;;;;;;;2.40;2.20;;;21.00;66.40;;;;;;6126831;23;20199;-82
2024/01/15 01:41:36;;;;;;;2.80;2.27;;;21.00;66.40;;;;;;6128503;23;20178;-81
2024/01/15 01:44:04;;;;;;;2.05;1.85;;;21.00;66.50;;;;;;6126866;23;20898;-81
2024/01/15 01:46:33;;;;;;;2.60;2.40;;;21.00;66.40;;;;;;6129270;23;20526;-81
2024/01/15 01:49:05;;;;;;;2.25;2.05;;;21.00;66.40;;;;;;6127349;23;20181;-81
2024/01/15 01:51:32;;;;;;;2.40;2.22;;;21.00;66.50;;;;;;6127716;23;20184;-81
2024/01/15 01:53:59;;;;;;;2.20;2.03;;;21.00;66.40;;;;;;6125074;23;20179;-81
2024/01/15 01:56:26;;;;;;;2.80;2.60;;;21.00;66.50;;;;;;6128397;23;20165;-81
2024/01/15 01:58:52;;;;;;;1.83;1.73;;;21.00;66.40;;;;;;6126110;23;21000;-81
2024/01/15 02:01:20;;;;;;;1.92;1.75;;;21.00;66.40;;;;;;6121967;23;20176;-81
2024/01/15 02:03:47;;;;;;;2.60;2.40;;;21.00;66.40;;;;;;6122599;23;20180;-81
2024/01/15 02:06:14;;;;;;;2.25;2.05;;;21.00;66.50;;;;;;6121915;23;20172;-81
2024/01/15 02:08:44;;;;;;;1.85;1.70;;;21.00;66.50;;;;;;6120947;23;20176;-81
2024/01/15 02:11:10;;;;;;;2.05;1.90;;;21.00;66.40;;;;;;6121626;23;20930;-81
2024/01/15 02:13:37;;;;;;;2.30;2.10;;;21.00;66.50;;;;;;6122293;23;20214;-81
2024/01/15 02:16:04;;;;;;;2.30;2.00;;;21.00;66.40;;;;;;6122001;23;20173;-81
2024/01/15 02:18:41;;;;;;;3.15;2.60;;;21.00;66.50;;;;;;6120581;23;20773;-82
2024/01/15 02:21:08;;;;;;;2.38;2.17;;;21.00;66.40;;;;;;6121909;23;20167;-81
2024/01/15 02:23:36;;;;;;;2.58;2.38;;;21.00;67.30;;;;;;6121841;23;20175;-81
2024/01/15 02:26:03;;;;;;;2.25;2.05;;;21.00;66.50;;;;;;6120873;23;20205;-81
2024/01/15 02:28:30;;;;;;;2.83;2.22;;;21.00;66.50;;;;;;6122596;23;20207;-80
2024/01/15 02:30:57;;;;;;;4.13;2.40;;;21.00;66.40;;;;;;6119682;23;20185;-81
2024/01/15 02:33:23;;;;;;;2.10;1.85;;;21.00;66.50;;;;;;6123242;23;20202;-82
2024/01/15 02:35:51;;;;;;;1.98;1.75;;;21.00;66.40;;;;;;6120858;23;20180;-81
2024/01/15 02:38:18;;;;;;;2.42;2.22;;;21.00;66.40;;;;;;6121066;23;20216;-80
2024/01/15 02:40:46;;;;;;;2.22;2.03;;;21.00;66.50;;;;;;6125416;23;20175;-81
2024/01/15 02:43:13;;;;;;;2.10;1.90;;;21.00;66.50;;;;;;6124409;23;20179;-82
2024/01/15 02:45:40;;;;;;;2.40;2.20;;;21.00;66.50;;;;;;6120698;23;20220;-82
2024/01/15 02:48:07;;;;;;;2.35;1.95;;;21.00;66.50;;;;;;6122230;23;20753;-82
2024/01/15 02:50:34;;;;;;;2.42;2.05;;;21.00;66.50;;;;;;6121848;23;20172;-81
2024/01/15 02:53:00;;;;;;;2.33;2.13;;;21.00;66.50;;;;;;6122049;23;20192;-82
2024/01/15 02:55:29;;;;;;;2.35;2.13;;;21.00;66.50;;;;;;6122390;23;20188;-81
2024/01/15 02:57:57;;;;;;;2.10;2.00;;;21.00;66.50;;;;;;6125693;23;20184;-81
2024/01/15 03:00:24;;;;;;;2.03;1.85;;;21.00;66.50;;;;;;6122618;23;20176;-81
2024/01/15 03:02:52;;;;;;;1.80;1.65;;;21.00;66.50;;;;;;6121783;23;20168;-81
2024/01/15 03:05:19;;;;;;;2.33;2.05;;;21.00;66.50;;;;;;6121783;23;20172;-80
2024/01/15 03:07:46;;;;;;;3.00;1.80;;;21.00;66.50;;;;;;6121595;23;20201;-81
2024/01/15 03:10:13;;;;;;;2.42;2.22;;;21.00;66.50;;;;;;6123949;23;20181;-82
2024/01/15 03:12:40;;;;;;;1.98;1.88;;;21.00;66.50;;;;;;6125151;23;20203;-81
2024/01/15 03:15:08;;;;;;;2.20;2.00;;;21.00;66.50;;;;;;6125947;23;20187;-81
2024/01/15 03:17:35;;;;;;;1.90;1.80;;;21.00;66.50;;;;;;6122622;23;20177;-81
2024/01/15 03:20:03;;;;;;;2.17;2.05;;;21.00;66.50;;;;;;6124165;23;20176;-81
2024/01/15 03:22:29;;;;;;;2.10;1.90;;;21.00;66.50;;;;;;6123225;23;20173;-81
2024/01/15 03:24:56;;;;;;;2.17;1.98;;;21.00;66.50;;;;;;6120092;23;20188;-82
2024/01/15 03:27:23;;;;;;;2.17;1.98;;;21.00;66.60;;;;;;6123218;23;20176;-82
2024/01/15 03:29:50;;;;;;;2.40;1.95;;;21.00;66.50;;;;;;6123795;23;20169;-82
2024/01/15 03:32:19;;;;;;;2.17;1.98;;;21.00;66.60;;;;;;6122572;23;20202;-82
2024/01/15 03:34:47;;;;;;;2.47;2.28;;;21.00;66.50;;;;;;6118580;23;20182;-82
2024/01/15 03:37:14;;;;;;;2.20;2.00;;;21.00;66.50;;;;;;6120172;23;20180;-81
2024/01/15 03:39:40;;;;;;;2.20;2.00;;;21.00;66.50;;;;;;6118687;23;20176;-82
2024/01/15 03:42:07;;;;;;;2.58;2.00;;;21.00;66.50;;;;;;6120795;23;21029;-82
2024/01/15 03:44:34;;;;;;;1.90;1.80;;;21.00;66.50;;;;;;6123646;23;20184;-81
2024/01/15 03:47:01;;;;;;;2.17;1.98;;;21.00;66.50;;;;;;6123167;23;20184;-81
2024/01/15 03:49:29;;;;;;;2.00;1.70;;;21.00;66.50;;;;;;6122396;23;20543;-81
2024/01/15 03:51:55;;;;;;;2.00;1.70;;;21.00;66.50;;;;;;6122892;23;20177;-81
2024/01/15 03:54:22;;;;;;;1.95;1.65;;;21.00;66.60;;;;;;6122384;23;20425;-82
2024/01/15 03:56:49;;;;;;;2.30;2.10;;;21.00;66.50;;;;;;6122978;23;20180;-82
2024/01/15 03:59:15;;;;;;;1.70;1.60;;;21.00;66.60;;;;;;6122246;23;20407;-82
2024/01/15 04:01:48;;;;;;;2.03;1.80;;;21.00;66.60;;;;;;6121665;23;21016;-81
2024/01/15 04:04:15;;;;;;;2.20;2.10;;;20.90;66.50;;;;;;6121955;23;20176;-80
2024/01/15 04:06:43;;;;;;;1.60;1.45;;;20.90;66.50;;;;;;6124033;23;20283;-81
2024/01/15 04:09:10;;;;;;;2.47;2.28;;;21.00;66.60;;;;;;6128224;23;20182;-82
2024/01/15 04:11:37;;;;;;;3.25;1.73;;;21.00;66.50;;;;;;6123810;23;20794;-81
2024/01/15 04:14:03;;;;;;;2.08;1.88;;;20.90;66.50;;;;;;6126335;23;20946;-81
2024/01/15 04:16:30;;;;;;;2.28;2.08;;;20.90;66.50;;;;;;6125884;23;20180;-82
2024/01/15 04:18:57;;;;;;;1.90;1.70;;;20.90;66.50;;;;;;6121991;23;20224;-81
2024/01/15 04:21:23;;;;;;;1.73;1.63;;;20.90;66.60;;;;;;6126456;23;20175;-81
2024/01/15 04:23:52;;;;;;;1.83;1.70;;;21.00;66.60;;;;;;6126881;23;20176;-82
2024/01/15 04:26:18;;;;;;;2.05;1.85;;;20.90;66.50;;;;;;6126290;23;20220;-81
2024/01/15 04:28:45;;;;;;;2.20;2.00;;;20.90;66.50;;;;;;6128093;23;20764;-81
2024/01/15 04:31:23;;;;;;;1.93;1.80;;;20.90;66.40;;;;;;6130949;23;20179;-81
2024/01/15 04:33:50;;;;;;;2.40;2.20;;;20.90;66.50;;;;;;6129083;23;20631;-81
2024/01/15 04:36:17;;;;;;;1.83;1.73;;;20.90;66.40;;;;;;6126132;23;20180;-81
2024/01/15 04:38:43;;;;;;;2.45;2.25;;;20.90;66.50;;;;;;6126093;23;20602;-81
2024/01/15 04:41:13;;;;;;;1.60;1.50;;;20.90;66.50;;;;;;6128143;23;20183;-81
2024/01/15 04:43:40;;;;;;;2.42;2.00;;;20.90;66.50;;;;;;6132746;23;20174;-81
2024/01/15 04:46:07;;;;;;;1.42;1.33;;;20.90;66.50;;;;;;6129803;23;20169;-81
2024/01/15 04:48:34;;;;;;;2.20;2.00;;;20.90;66.50;;;;;;6128956;23;20231;-81
2024/01/15 04:51:01;;;;;;;1.92;1.73;;;20.90;66.50;;;;;;6126601;23;20864;-81
2024/01/15 04:53:27;;;;;;;2.40;2.00;;;20.90;66.50;;;;;;6127080;23;20188;-81
2024/01/15 04:55:54;;;;;;;1.58;1.48;;;20.90;66.40;;;;;;6124400;23;20605;-81
2024/01/15 04:58:24;;;;;;;1.67;1.58;;;20.90;66.50;;;;;;6126366;23;20164;-80
2024/01/15 05:00:51;;;;;;;2.58;2.38;;;20.90;66.50;;;;;;6125702;23;20160;-82
2024/01/15 05:03:18;;;;;;;2.07;1.77;;;20.90;66.50;;;;;;6125349;23;20176;-81
2024/01/15 05:05:45;;;;;;;1.90;1.70;;;20.90;66.40;;;;;;6126963;23;20415;-80
2024/01/15 05:08:11;;;;;;;2.25;2.05;;;21.00;66.60;;;;;;6100774;23;20338;-81
2024/01/15 05:10:38;;;;;;;2.15;2.00;;;20.90;66.50;;;;;;6128380;23;20176;-80
2024/01/15 05:13:05;;;;;;;1.70;1.42;;;20.90;66.50;;;;;;6120195;23;20192;-80
2024/01/15 05:15:33;;;;;;;1.60;1.50;;;20.90;66.50;;;;;;6119194;23;20878;-81
2024/01/15 05:18:00;;;;;;;1.65;1.55;;;20.90;66.50;;;;;;6117759;23;20168;-81
2024/01/15 05:20:26;;;;;;;2.05;1.85;;;20.90;66.40;;;;;;6119114;23;20615;-81
2024/01/15 05:22:53;;;;;;;1.92;1.83;;;20.90;66.50;;;;;;6118415;23;20231;-81
2024/01/15 05:25:20;;;;;;;2.20;2.00;;;20.90;66.70;;;;;;6119050;23;20954;-80
2024/01/15 05:27:46;;;;;;;1.50;1.40;;;20.90;66.50;;;;;;6116277;23;20217;-81
2024/01/15 05:30:14;;;;;;;1.92;1.60;;;20.90;66.40;;;;;;6118484;23;20529;-81
2024/01/15 05:32:42;;;;;;;1.90;1.80;;;20.90;66.50;;;;;;6116068;23;20252;-80
2024/01/15 05:35:09;;;;;;;1.80;1.70;;;20.90;66.50;;;;;;6117652;23;20187;-81
2024/01/15 05:37:36;;;;;;;2.20;2.00;;;20.90;66.40;;;;;;6115058;23;20263;-81
2024/01/15 05:40:04;;;;;;;1.85;1.75;;;20.90;66.50;;;;;;6117658;23;20176;-81
2024/01/15 05:42:31;;;;;;;2.40;2.25;;;20.90;66.40;;;;;;6116266;23;20969;-81
2024/01/15 05:44:59;;;;;;;2.17;1.97;;;20.90;66.50;;;;;;6116841;23;20267;-81
2024/01/15 05:47:26;;;;;;;1.50;1.40;;;20.90;66.50;;;;;;6115969;23;20476;-80
2024/01/15 05:49:55;;;;;;;1.85;1.60;;;20.90;66.40;;;;;;6116545;23;20882;-80
2024/01/15 05:52:22;;;;;;;1.40;1.30;;;20.90;66.50;;;;;;6116532;23;20183;-80
2024/01/15 05:54:50;;;;;;;1.60;1.50;;;20.90;66.50;;;;;;6115325;23;20291;-81
2024/01/15 05:57:17;;;;;;;1.70;1.60;;;20.90;66.40;;;;;;6115895;23;20168;-81
2024/01/15 05:59:45;;;;;;;1.88;1.77;;;20.90;66.50;;;;;;6118087;23;20809;-81
2024/01/15 06:02:11;;;;;;;1.73;1.57;;;20.90;66.50;;;;;;6118016;23;20177;-81
2024/01/15 06:04:38;;;;;;;1.70;1.60;;;20.90;66.50;;;;;;6115600;23;20400;-81
2024/01/15 06:07:06;;;;;;;1.45;1.35;;;20.90;66.50;;;;;;6116757;23;20172;-81
2024/01/15 06:09:33;;;;;;;2.00;1.80;;;20.90;66.50;;;;;;6117406;23;20177;-80
2024/01/15 06:12:00;;;;;;;1.60;1.40;;;20.90;66.50;;;;;;6116714;23;20889;-82
2024/01/15 06:14:26;;;;;;;1.90;1.70;;;20.90;66.40;;;;;;6115166;23;20212;-81
2024/01/15 06:16:53;;;;;;;1.70;1.42;;;20.90;66.50;;;;;;6124239;23;20177;-81
2024/01/15 06:19:20;;;;;;;1.52;1.42;;;20.90;66.50;;;;;;6126106;23;20277;-81
2024/01/15 06:21:47;;;;;;;1.83;1.70;;;20.90;66.50;;;;;;6116267;23;20180;-81
2024/01/15 06:24:15;;;;;;;1.70;1.60;;;20.90;66.50;;;;;;6117262;23;20173;-82
2024/01/15 06:26:42;;;;;;;1.55;1.45;;;20.90;66.50;;;;;;6117754;23;20586;-82
2024/01/15 06:29:09;;;;;;;1.60;1.50;;;20.90;66.50;;;;;;6117347;23;20177;-81
2024/01/15 06:31:35;;;;;;;1.92;1.75;;;20.90;66.40;;;;;;6118932;23;20186;-82
2024/01/15 06:34:02;;;;;;;1.50;1.40;;;20.90;66.50;;;;;;6118616;23;20203;-83
2024/01/15 06:36:29;;;;;;;1.80;1.70;;;20.90;66.50;;;;;;6121488;23;20208;-83
2024/01/15 06:38:55;;;;;;;2.10;1.80;;;20.90;66.50;;;;;;6122012;23;20913;-83
2024/01/15 06:41:25;;;;;;;1.50;1.40;;;20.90;66.50;;;;;;6124731;23;21012;-81
2024/01/15 06:43:52;;;;;;;1.70;1.60;;;20.90;66.40;;;;;;6120024;23;20648;-83
2024/01/15 06:46:21;;;;;;;1.40;1.30;;;20.90;66.50;;;;;;6119048;23;20174;-83
2024/01/15 06:48:48;;;;;;;2.03;1.77;;;20.90;66.50;;;;;;6119104;23;20566;-82
2024/01/15 06:51:16;;;;;;;2.08;1.88;;;20.90;66.40;;;;;;6115800;23;20238;-81
2024/01/15 06:53:43;;;;;;;1.50;1.40;;;20.90;66.40;;;;;;6119692;23;20772;-82
2024/01/15 06:56:10;;;;;;;1.67;1.52;;;20.90;66.40;;;;;;6116743;23;20203;-81
2024/01/15 06:58:38;;;;;;;1.80;1.20;;;20.90;66.40;;;;;;6112080;23;20182;-80
2024/01/15 07:01:05;;;;;;;1.40;1.30;;;20.90;66.40;;;;;;6109703;23;20171;-82
2024/01/15 07:03:32;;;;;;;2.03;1.83;;;20.90;66.40;;;;;;6109725;23;20174;-81
2024/01/15 07:05:59;;;;;;;1.52;1.42;;;20.90;66.30;;;;;;6111050;23;20175;-82
2024/01/15 07:08:26;;;;;;;1.60;1.50;;;20.90;66.40;;;;;;6111058;23;20183;-82
2024/01/15 07:10:52;;;;;;;1.63;1.52;;;20.90;66.30;;;;;;6107059;23;20886;-82
2024/01/15 07:13:19;;;;;;;1.95;1.75;;;20.90;66.40;;;;;;6110787;23;20239;-81
2024/01/15 07:15:47;;;;;;;2.08;1.98;;;20.90;66.40;;;;;;6111722;23;20176;-82
2024/01/15 07:18:14;;;;;;;1.65;1.35;;;20.80;66.30;;;;;;6119362;23;20176;-82
2024/01/15 07:20:41;;;;;;;1.42;1.33;;;20.90;66.40;;;;;;6118560;23;20184;-80
2024/01/15 07:23:08;;;;;;;8.95;1.75;;;20.90;66.60;;;;;;6111945;23;20182;-82
2024/01/15 07:25:34;;;;;;;8.50;2.00;;;20.90;67.10;;;;;;6110819;23;20177;-82
2024/01/15 07:28:01;;;;;;;2.10;1.95;;;20.90;67.90;;;;;;6108426;23;20975;-83
2024/01/15 07:30:28;;;;;;;6.28;1.40;;;20.90;68.00;;;;;;6107336;23;20176;-81
2024/01/15 07:32:56;;;;;;;1.50;1.38;;;20.90;67.80;;;;;;6105347;23;20180;-80
2024/01/15 07:35:22;;;;;;;2.97;1.88;;;20.90;67.70;;;;;;6107689;23;20179;-81
2024/01/15 07:37:49;;;;;;;6.18;2.75;;;20.90;67.50;;;;;;6104600;23;20179;-80
2024/01/15 07:40:16;;;;;;;4.13;1.50;;;20.90;67.50;;;;;;6079625;23;20190;-80
2024/01/15 07:42:43;;;;;;;2.95;1.92;;;20.90;67.30;;;;;;6105473;23;20172;-80
2024/01/15 07:45:10;;;;;;;2.13;1.70;;;20.90;67.30;;;;;;6106624;23;20171;-80
2024/01/15 07:47:37;;;;;;;3.55;1.60;;;20.90;67.10;;;;;;6105738;23;20191;-80
2024/01/15 07:50:06;;;;;;;3.55;1.42;;;20.90;67.10;;;;;;6105514;23;20219;-80
2024/01/15 07:52:33;;;;;;;1.30;1.10;;;20.90;67.20;;;;;;6106280;23;20259;-80
2024/01/15 07:55:00;;;;;;;1.75;1.30;;;20.90;67.00;;;;;;6105963;23;20196;-80
2024/01/15 07:57:27;;;;;;;2.17;1.50;;;20.90;67.00;;;;;;6106263;23;20184;-82
2024/01/15 07:59:54;;;;;;;1.70;1.60;;;20.90;67.00;;;;;;6106528;23;20175;-83
2024/01/15 08:02:21;;;;;;;1.45;1.35;;;20.90;66.80;;;;;;6110368;23;21054;-83
2024/01/15 08:04:48;;;;;;;2.55;1.67;;;20.90;66.20;;;;;;6110574;23;21098;-83
2024/01/15 08:07:17;;;;;;;1.70;1.40;;;20.90;66.00;;;;;;6112627;23;20649;-83
2024/01/15 08:09:44;;;;;;;1.65;1.45;;;20.90;66.30;;;;;;6111909;23;20565;-84
2024/01/15 08:12:11;;;;;;;2.70;1.48;;;20.90;66.40;;;;;;6111977;23;20176;-84
2024/01/15 08:14:38;;;;;;;1.90;1.27;;;20.90;66.40;;;;;;6108533;23;21083;-84
2024/01/15 08:17:06;;;;;;;1.95;1.58;;;21.00;66.40;;;;;;6112377;23;20179;-82
2024/01/15 08:19:32;;;;;;;2.00;1.65;;;20.90;66.30;;;;;;6112946;23;20169;-84
2024/01/15 08:21:59;;;;;;;1.20;1.08;;;20.90;66.20;;;;;;6109664;23;20949;-83
2024/01/15 08:24:28;;;;;;;1.90;1.80;;;20.90;66.10;;;;;;6110816;23;20180;-83
2024/01/15 08:26:55;;;;;;;1.67;1.50;;;20.90;66.00;;;;;;6115582;23;20176;-83
2024/01/15 08:29:24;;;;;;;4.43;1.90;;;20.90;66.00;;;;;;6115138;23;20172;-82
2024/01/15 08:31:51;;;;;;;1.67;1.17;;;20.90;66.00;;;;;;6116463;23;20263;-83
2024/01/15 08:34:17;;;;;;;1.60;1.50;;;20.90;65.90;;;;;;6118352;23;20198;-84
2024/01/15 08:36:44;;;;;;;1.58;1.45;;;20.90;65.90;;;;;;6118787;23;20978;-81
2024/01/15 08:39:11;;;;;;;1.70;1.37;;;20.90;65.90;;;;;;6118144;23;20184;-80
2024/01/15 08:41:41;;;;;;;1.80;1.50;;;20.90;65.80;;;;;;6120667;23;20413;-84
2024/01/15 08:44:07;;;;;;;1.85;1.75;;;20.90;65.80;;;;;;6129466;23;20187;-84
2024/01/15 08:46:34;;;;;;;1.40;1.30;;;20.90;65.70;;;;;;6124781;23;20961;-85
2024/01/15 08:49:01;;;;;;;2.75;2.50;;;21.00;65.90;;;;;;6124933;23;20841;-85
2024/01/15 08:51:28;;;;;;;1.45;1.25;;;20.90;65.70;;;;;;6124722;23;20187;-85
2024/01/15 08:53:54;;;;;;;1.30;1.20;;;20.90;65.70;;;;;;6124188;23;20204;-85
2024/01/15 08:56:21;;;;;;;1.63;1.52;;;20.90;65.80;;;;;;6124997;23;20180;-85
2024/01/15 08:58:50;;;;;;;1.50;1.33;;;20.90;65.80;;;;;;6123737;23;20173;-85
2024/01/15 09:01:16;;;;;;;1.60;1.50;;;20.90;65.90;;;;;;6121773;23;20976;-85
2024/01/15 09:03:43;;;;;;;2.03;1.77;;;20.90;66.00;;;;;;6125092;23;20392;-82
2024/01/15 09:06:11;;;;;;;1.67;1.58;;;20.90;66.10;;;;;;6123835;23;20211;-82
2024/01/15 09:08:37;;;;;;;1.42;1.33;;;20.90;66.10;;;;;;6121534;23;20177;-81
2024/01/15 09:11:04;;;;;;;27.30;2.13;;;20.90;67.10;;;;;;6121586;23;20664;-82
2024/01/15 09:13:31;;;;;;;2.20;1.52;;;20.90;66.80;;;;;;6134920;23;20192;-82
2024/01/15 09:16:00;;;;;;;2.30;1.43;;;20.90;67.00;;;;;;6135765;23;20181;-85
2024/01/15 09:18:27;;;;;;;3.70;1.30;;;20.90;67.10;;;;;;6140413;23;20420;-85
2024/01/15 09:20:54;;;;;;;2.03;1.83;;;21.00;67.20;;;;;;6143127;23;20177;-86
2024/01/15 09:23:21;;;;;;;1.70;1.60;;;21.00;67.50;;;;;;6143465;23;20199;-84
2024/01/15 09:25:48;;;;;;;4.78;1.70;;;21.00;67.40;;;;;;6139261;23;20182;-86
2024/01/15 09:28:15;;;;;;;3.20;1.00;;;21.00;67.30;;;;;;6136429;23;20896;-82
2024/01/15 09:30:42;;;;;;;2.80;1.42;;;21.00;67.50;;;;;;6140822;23;20403;-82
2024/01/15 09:33:10;;;;;;;2.13;1.50;;;21.00;67.30;;;;;;6139614;23;20176;-81
2024/01/15 09:35:36;;;;;;;2.85;1.50;;;21.00;67.20;;;;;;6140108;23;20444;-81
2024/01/15 09:38:03;;;;;;;1.50;1.40;;;21.00;67.20;;;;;;6141483;23;20177;-81
2024/01/15 09:40:33;;;;;;;1.35;1.20;;;21.00;67.20;;;;;;6139526;23;20422;-80
2024/01/15 09:43:00;;;;;;;1.83;1.20;;;21.10;67.30;;;;;;6137392;23;20173;-80
2024/01/15 09:45:28;;;;;;;1.50;1.40;;;21.10;67.30;;;;;;6134448;23;20173;-80
2024/01/15 09:47:54;;;;;;;1.95;1.60;;;21.10;67.10;;;;;;6134608;23;20180;-80
2024/01/15 09:50:23;;;;;;;1.40;1.30;;;21.10;67.10;;;;;;6135691;23;20623;-85
2024/01/15 09:52:50;;;;;;;3.97;1.90;;;21.10;67.10;;;;;;6138507;23;20396;-87
2024/01/15 09:55:18;;;;;;;1.73;1.30;;;21.10;66.80;;;;;;6137238;23;20442;-88
2024/01/15 09:57:46;;;;;;;1.92;1.50;;;21.10;66.70;;;;;;6140139;23;20978;-86
2024/01/15 10:00:15;;;;;;;2.07;1.30;;;21.10;66.70;;;;;;6137480;23;20173;-88
2024/01/15 10:02:42;;;;;;;1.52;1.38;;;21.10;66.80;;;;;;6138343;23;20435;-87
2024/01/15 10:05:10;;;;;;;1.52;1.42;;;21.10;66.70;;;;;;6138534;23;20173;-88
2024/01/15 10:07:39;;;;;;;5.72;1.60;;;21.10;66.60;;;;;;6137048;23;20185;-86
2024/01/15 10:10:07;;;;;;;1.88;1.58;;;21.10;66.60;;;;;;6135650;23;20173;-88
2024/01/15 10:12:34;;;;;;;2.35;1.80;;;21.10;66.50;;;;;;6137642;23;20176;-86
2024/01/15 10:15:00;;;;;;;1.77;1.50;;;21.10;66.50;;;;;;6140755;23;20196;-87
2024/01/15 10:17:28;;;;;;;1.40;1.30;;;21.10;66.50;;;;;;6140120;23;20177;-85
2024/01/15 10:19:54;;;;;;;2.00;1.30;;;21.10;66.50;;;;;;6142292;23;20681;-87
2024/01/15 10:22:21;;;;;;;1.85;1.55;;;21.10;66.40;;;;;;6144986;23;20188;-84
2024/01/15 10:24:50;;;;;;;1.48;1.30;;;21.10;66.40;;;;;;6137979;23;20173;-81
2024/01/15 10:27:17;;;;;;;2.08;1.35;;;21.10;66.40;;;;;;6136019;23;20183;-83
2024/01/15 10:29:44;;;;;;;2.10;1.80;;;21.10;66.20;;;;;;6134696;23;20228;-84
2024/01/15 10:32:10;;;;;;;1.85;1.65;;;21.10;66.00;;;;;;6137047;23;20172;-81
2024/01/15 10:34:40;;;;;;;2.95;1.85;;;21.00;65.90;;;;;;6128495;23;20196;-82
2024/01/15 10:37:08;;;;;;;1.35;1.25;;;21.00;65.90;;;;;;6132244;23;20235;-82
2024/01/15 10:39:35;;;;;;;1.73;1.40;;;21.00;65.90;;;;;;6134496;23;20212;-82
2024/01/15 10:42:04;;;;;;;2.10;1.42;;;21.10;66.10;;;;;;6125537;23;20183;-81
2024/01/15 10:44:31;;;;;;;1.60;1.50;;;21.10;66.00;;;;;;6132665;23;20173;-82
2024/01/15 10:46:58;;;;;;;1.27;1.17;;;21.00;65.90;;;;;;6132515;23;20403;-82
2024/01/15 10:49:27;;;;;;;3.83;1.45;;;21.00;65.90;;;;;;6131383;23;20179;-81
2024/01/15 10:51:55;;;;;;;2.38;1.48;;;21.00;65.90;;;;;;6132459;23;20626;-80
2024/01/15 10:54:22;;;;;;;2.30;1.20;;;21.00;65.90;;;;;;6134650;23;20247;-81
2024/01/15 10:56:51;;;;;;;1.77;1.20;;;21.00;65.90;;;;;;6132222;23;21150;-80
2024/01/15 10:59:21;;;;;;;2.75;1.65;;;21.00;66.00;;;;;;6133654;23;20808;-82
2024/01/15 11:01:48;;;;;;;1.98;1.48;;;21.00;66.00;;;;;;6132816;23;20164;-81
2024/01/15 11:04:16;;;;;;;1.40;1.25;;;21.00;66.00;;;;;;6130458;23;20176;-80
2024/01/15 11:06:45;;;;;;;2.10;1.30;;;21.00;65.90;;;;;;6134308;23;20283;-81
2024/01/15 11:09:13;;;;;;;1.63;1.27;;;21.00;66.10;;;;;;6131131;23;20184;-80
2024/01/15 11:11:43;;;;;;;1.40;1.30;;;21.00;66.00;;;;;;6130875;23;20259;-80
2024/01/15 11:14:10;;;;;;;1.52;1.40;;;21.00;66.00;;;;;;6132046;23;20176;-81
2024/01/15 11:16:59;;;;;;;2.20;1.58;;;21.10;66.20;;;;;;6132884;23;20702;-81
2024/01/15 11:19:26;;;;;;;1.30;1.10;;;21.10;66.10;;;;;;6131702;23;20243;-80
2024/01/15 11:21:52;;;;;;;1.30;1.20;;;21.10;66.20;;;;;;6133318;23;20517;-80
2024/01/15 11:24:43;;;;;;;1.40;1.30;;;21.10;66.10;;;;;;6133301;23;20400;-80
2024/01/15 11:27:10;;;;;;;1.80;1.42;;;21.10;66.10;;;;;;6110800;23;20213;-81
2024/01/15 11:29:38;;;;;;;1.52;1.25;;;21.10;66.20;;;;;;6132750;23;20185;-81
2024/01/15 11:32:07;;;;;;;2.50;1.23;;;21.10;66.10;;;;;;6130461;23;20468;-81
2024/01/15 11:35:01;;;;;;;1.80;1.10;;;21.10;66.00;;;;;;6132580;23;20197;-80
2024/01/15 11:37:29;;;;;;;1.38;1.25;;;21.10;66.00;;;;;;6131827;23;20176;-80
2024/01/15 11:39:57;;;;;;;1.40;1.00;;;21.10;66.00;;;;;;6130002;23;20736;-80
2024/01/15 11:42:24;;;;;;;1.33;1.15;;;21.10;66.00;;;;;;6132486;23;20177;-80
2024/01/15 11:44:51;;;;;;;1.73;1.02;;;21.10;66.00;;;;;;6133160;23;20172;-81
2024/01/15 11:47:55;;;;;;;1.37;1.20;;;21.10;66.00;;;;;;6131294;23;20234;-81
2024/01/15 11:50:22;;;;;;;1.50;1.40;;;21.10;66.00;;;;;;6132779;23;20391;-81
2024/01/15 11:52:57;;;;;;;1.33;1.20;;;21.10;66.00;;;;;;6133276;23;20406;-81
2024/01/15 11:55:28;;;;;;;3.08;1.10;;;21.00;65.90;;;;;;6132184;23;21117;-80
2024/01/15 11:57:55;;;;;;;2.40;1.93;;;21.00;65.90;;;;;;6134725;23;20947;-81
2024/01/15 12:00:24;;;;;;;1.67;1.30;;;21.00;65.90;;;;;;6133454;23;20407;-81
2024/01/15 12:02:52;;;;;;;1.70;1.10;;;21.00;65.90;;;;;;6130808;23;20410;-80
2024/01/15 12:05:21;;;;;;;1.30;1.20;;;21.00;65.90;;;;;;6132875;23;20415;-81
2024/01/15 12:07:49;;;;;;;4.70;1.38;;;21.00;65.90;;;;;;6133313;23;20177;-81
2024/01/15 12:10:18;;;;;;;1.20;1.10;;;21.00;65.90;;;;;;6133326;23;20174;-80
2024/01/15 12:12:56;;;;;;;1.48;1.33;;;21.00;65.90;;;;;;6132465;23;20179;-80
2024/01/15 12:15:23;;;;;;;1.25;1.15;;;21.00;65.90;;;;;;6127554;23;20180;-80
2024/01/15 12:17:50;;;;;;;1.20;1.02;;;21.00;65.90;;;;;;6131755;23;20632;-82
2024/01/15 12:20:18;;;;;;;1.90;1.23;;;21.00;66.00;;;;;;6133420;23;20180;-80
2024/01/15 12:22:45;;;;;;;1.30;1.13;;;21.00;66.00;;;;;;6132678;23;20182;-80
2024/01/15 12:25:12;;;;;;;1.35;1.17;;;21.00;66.00;;;;;;6133660;23;21011;-80
2024/01/15 12:27:39;;;;;;;1.50;1.40;;;21.00;66.00;;;;;;6133279;23;20254;-81
2024/01/15 12:30:08;;;;;;;1.50;1.20;;;21.00;66.00;;;;;;6131811;23;20967;-80
2024/01/15 12:32:35;;;;;;;1.38;1.17;;;21.00;66.00;;;;;;6129189;23;20543;-80
2024/01/15 12:35:02;;;;;;;1.75;1.65;;;21.00;66.00;;;;;;6133530;23;20236;-81
2024/01/15 12:37:30;;;;;;;1.27;1.13;;;21.00;66.00;;;;;;6132977;23;20184;-80
2024/01/15 12:40:00;;;;;;;1.57;1.30;;;21.00;66.00;;;;;;6129992;23;20408;-80
2024/01/15 12:42:28;;;;;;;1.30;1.20;;;21.00;66.00;;;;;;6132375;23;20556;-81
2024/01/15 12:44:57;;;;;;;1.10;1.00;;;21.00;66.00;;;;;;6132361;23;20773;-80
2024/01/15 12:47:24;;;;;;;1.80;1.00;;;21.00;66.00;;;;;;6129636;23;20499;-80
2024/01/15 12:49:54;;;;;;;2.20;1.20;;;21.00;66.10;;;;;;6132145;23;20558;-80